Terminal Aerodrome Forecast
Issued by NWS Boise, ID

Home | Current Version | Previous Version | Text Only | Print | Product List | Glossary On
Versions: 1 2 3 4 5 6 7 8 9 10 11 12 13 14 15 16 17 18 19 20 21 22 23 24 25 26 27 28
000
FTUS45 KBOI 280525
TAFBOI
TAF
KBOI 280525Z 2806/0106 14010KT P6SM VCSH BKN100 OVC200
     FM282100 30014G24KT P6SM VCSH BKN060 OVC100
     FM010200 30009KT P6SM SCT200=

USA.gov is the U.S. government's official web portal to all federal, state and local government web resources and services.